Flight Track Log - Related Links

Times and Time Zones

All times are in EST time to prevent confusion due to time zone crossing. See the EJA941 flight status page for this flight to view local times or setup timezone preferences in your user account.

Time Position Orientation Groundspeed Altitude Reporting Facility
EST Latitude Longitude Course Direction KTS MPH feet Rate Location/Type
Sat 12:02:54 PM 33.6167 -111.9333 239° Southwest 199 229 2,400  Level Phoenix TRACON
Sat 12:03:24 PM 33.6000 -111.9667 239° Southwest 216 249 4,200 3,313 Climbing Phoenix TRACON
Sat 12:04:30 PM 33.6667 -112.0000 337° Northwest 253 291 7,700 2,818 Climbing Phoenix TRACON
Sat 12:05:36 PM 33.7192 -111.9650 29° Northeast 255 293 10,400 2,646 Climbing Albuquerque Center
Sat 12:06:37 PM 33.8039 -111.9125 27° Northeast 284 327 13,300 2,634 Climbing Albuquerque Center
Sat 12:07:39 PM 33.8803 -111.8683 26° Northeast 302 348 15,800 2,226 Climbing Albuquerque Center
Sat 12:08:41 PM 33.9644 -111.8114 29° Northeast 311 358 17,900 1,355 Climbing Albuquerque Center
Sat 12:09:43 PM 34.0469 -111.7367 37° Northeast 370 426 18,600 823 Climbing Albuquerque Center
Sat 12:10:45 PM 34.1436 -111.6744 28° Northeast 392 451 19,600 976 Climbing Albuquerque Center
Sat 12:11:46 PM 34.2303 -111.5756 43° Northeast 424 488 20,600 1,220 Climbing Albuquerque Center
Sat 12:12:48 PM 34.3189 -111.4725 44° Northeast 437 503 22,100 1,500 Climbing Albuquerque Center
Sat 12:13:50 PM 34.4075 -111.3681 44° Northeast 443 510 23,700 1,548 Climbing Albuquerque Center
Sat 12:14:52 PM 34.4975 -111.2617 44° Northeast 449 517 25,300 1,548 Climbing Albuquerque Center
Sat 12:15:54 PM 34.5883 -111.1536 44° Northeast 455 524 26,900 1,707 Climbing Albuquerque Center
Sat 12:16:55 PM 34.6994 -111.0214 44° Northeast 464 534 28,800 1,707 Climbing Albuquerque Center
Sat 12:17:57 PM 34.7928 -110.9086 45° Northeast 470 541 30,400 1,548 Climbing Albuquerque Center
Sat 12:18:59 PM 34.8897 -110.7944 44° Northeast 481 554 32,000 1,597 Climbing Albuquerque Center
Sat 12:20:01 PM 34.9922 -110.6683 45° Northeast 484 557 33,700 1,597 Climbing Albuquerque Center
Sat 12:21:03 PM 35.0844 -110.5569 45° Northeast 487 560 35,300 1,597 Climbing Albuquerque Center
Sat 12:22:05 PM 35.1939 -110.4275 44° Northeast 489 563 37,000 1,597 Climbing Albuquerque Center
Sat 12:23:07 PM 35.2836 -110.3161 45° Northeast 484 557 38,600 1,171 Climbing Albuquerque Center
Sat 12:24:08 PM 35.3900 -110.1881 44° Northeast 481 554 39,400 1,024 Climbing Albuquerque Center
Sat 12:25:10 PM 35.4806 -110.0764 45° Northeast 481 554 40,700 774 Climbing Albuquerque Center
Sat 12:26:12 PM 35.5878 -109.9456 45° Northeast 485 558 41,000 145 Climbing Albuquerque Center
Sat 12:27:14 PM 35.6794 -109.8289 46° Northeast 492 566 41,000  Level Albuquerque Center
Sat 12:28:16 PM 35.7767 -109.6775 52° Northeast 501 577 41,000  Level Albuquerque Center
Sat 12:29:18 PM 35.8589 -109.5464 52° Northeast 504 580 41,000  Level Albuquerque Center
Sat 12:30:20 PM 35.9403 -109.4161 52° Northeast 502 578 41,000  Level Albuquerque Center
Sat 12:31:22 PM 36.0358 -109.2619 53° Northeast 503 579 41,000  Level Albuquerque Center
Sat 12:32:24 PM 36.1072 -109.1361 55° Northeast 503 579 41,000  Level Albuquerque Center
Sat 12:33:26 PM 36.1914 -108.9508 61° Northeast 510 587 41,000  Level Albuquerque Center
Sat 12:34:27 PM 36.2611 -108.8031 60° Northeast 508 585 41,000  Level Albuquerque Center
Sat 12:35:29 PM 36.3292 -108.6564 60° Northeast 508 585 41,000  Level Albuquerque Center
Sat 12:36:31 PM 36.4078 -108.4856 60° Northeast 509 586 41,000  Level Albuquerque Center
Sat 12:37:33 PM 36.4750 -108.3386 60° Northeast 510 587 41,000  Level Albuquerque Center
Sat 12:38:35 PM 36.5544 -108.1661 60° Northeast 512 589 41,000  Level Albuquerque Center
Sat 12:40:06 PM 36.6547 -107.9442 61° Northeast 510 587 41,000  Level Denver Center
Sat 12:41:08 PM 36.7325 -107.7725 60° Northeast 510 587 41,000  Level Denver Center
Sat 12:42:09 PM 36.7889 -107.6497 60° Northeast 511 588 41,000  Level Denver Center
Sat 12:43:11 PM 36.8661 -107.4758 61° Northeast 513 590 41,000  Level Denver Center
Sat 12:44:13 PM 36.9447 -107.3006 61° Northeast 516 594 41,000  Level Denver Center
Sat 12:45:15 PM 37.0106 -107.1522 61° Northeast 511 588 41,000  Level Denver Center
Sat 12:46:17 PM 37.0875 -106.9775 61° Northeast 513 590 41,000  Level Denver Center
Sat 12:47:19 PM 37.1517 -106.8317 61° Northeast 501 577 41,000  Level Denver Center
Sat 12:48:21 PM 37.2247 -106.6636 61° Northeast 492 566 41,000  Level Denver Center
Sat 12:49:23 PM 37.2881 -106.5172 61° Northeast 499 574 41,000  Level Denver Center
Sat 12:50:25 PM 37.3631 -106.3414 62° Northeast 510 587 41,000  Level Denver Center
Sat 12:51:27 PM 37.4306 -106.1903 61° Northeast 516 594 41,000  Level Denver Center
Sat 12:52:29 PM 37.5064 -106.0119 62° Northeast 517 595 41,000  Level Denver Center
Sat 12:53:31 PM 37.5744 -105.8497 62° Northeast 521 600 41,000  Level Denver Center
Sat 12:54:33 PM 37.6417 -105.6953 61° Northeast 524 603 41,000  Level Denver Center
Sat 12:55:35 PM 37.7183 -105.5122 62° Northeast 527 606 41,000  Level Denver Center
Sat 12:56:39 PM 37.7844 -105.3533 62° Northeast 531 611 41,000  Level Denver Center
Sat 12:57:39 PM 37.8636 -105.1658 62° Northeast 538 619 41,000  Level Denver Center
Sat 12:58:41 PM 37.9303 -105.0053 62° Northeast 537 618 41,000  Level Denver Center
Sat 12:59:55 PM 37.9964 -104.8442 62° Northeast 536 617 41,000  Level Denver Center
Sat 01:00:58 PM 38.0808 -104.6397 62° Northeast 512 589 41,000  Level Denver Center
Sat 01:02:00 PM 38.1531 -104.4628 63° Northeast 504 580 41,000  Level Denver Center
Sat 01:03:02 PM 38.2144 -104.3117 63° Northeast 501 577 41,000  Level Denver Center
Sat 01:04:04 PM 38.2764 -104.1600 62° Northeast 501 577 41,000  Level Denver Center
Sat 01:05:06 PM 38.3478 -103.9808 63° Northeast 506 582 41,000  Level Denver Center
Sat 01:06:08 PM 38.4106 -103.8236 63° Northeast 515 593 41,000  Level Denver Center
Sat 01:07:10 PM 38.4833 -103.6414 63° Northeast 515 593 41,000  Level Denver Center
Sat 01:08:12 PM 38.5450 -103.4844 63° Northeast 515 593 41,000  Level Denver Center
Sat 01:09:14 PM 38.6108 -103.3169 63° Northeast 512 589 41,000  Level Denver Center
Sat 01:10:16 PM 38.6742 -103.1561 63° Northeast 510 587 41,000  Level Denver Center
Sat 01:11:30 PM 38.7378 -102.9908 64° Northeast 518 596 41,000  Level Denver Center
Sat 01:12:33 PM 38.8306 -102.7531 63° Northeast 524 603 41,000  Level Denver Center
Sat 01:13:35 PM 38.8922 -102.5906 64° Northeast 527 606 41,000  Level Denver Center
Sat 01:14:37 PM 38.9544 -102.4294 64° Northeast 527 606 41,000  Level Denver Center
Sat 01:15:39 PM 39.0256 -102.2417 64° Northeast 524 603 41,000  Level Denver Center
Sat 01:16:53 PM 39.0864 -102.0800 64° Northeast 523 602 41,000  Level Denver Center
Sat 01:17:56 PM 39.1675 -101.8656 64° Northeast 523 602 41,000  Level Denver Center
Sat 01:18:58 PM 39.2325 -101.6919 64° Northeast 524 603 41,000  Level Denver Center
Sat 01:20:00 PM 39.3022 -101.5019 65° Northeast 526 605 41,000  Level Denver Center
Sat 01:21:02 PM 39.3636 -101.3386 64° Northeast 530 610 41,000  Level Denver Center
Sat 01:22:04 PM 39.4339 -101.1450 65° Northeast 534 615 41,000  Level Denver Center
Sat 01:23:06 PM 39.4942 -100.9794 65° Northeast 532 612 41,000  Level Denver Center
Sat 01:24:08 PM 39.5628 -100.7872 65° Northeast 529 609 41,000  Level Denver Center
Sat 01:25:10 PM 39.6222 -100.6239 65° Northeast 526 605 41,000  Level Denver Center
Sat 01:26:12 PM 39.6919 -100.4300 65° Northeast 532 612 41,000 -194 Level Denver Center
Sat 01:27:14 PM 39.7506 -100.2639 65° Northeast 531 611 40,600 -629 Descending Denver Center
Sat 01:28:16 PM 39.8078 -100.1033 65° Northeast 506 582 39,700 -968 Descending Denver Center
Sat 01:29:18 PM 39.8739 -99.9422 62° Northeast 507 583 38,600 -1,113 Descending Denver Center
Sat 01:30:20 PM 39.9617 -99.7706 56° Northeast 476 548 37,400 -1,065 Descending Denver Center
Sat 01:31:22 PM 40.0367 -99.6219 57° Northeast 488 562 36,400 -823 Descending Denver Center
Sat 01:32:24 PM 40.1133 -99.4686 57° Northeast 502 578 35,700 -1,210 Descending Denver Center
Sat 01:33:26 PM 40.1869 -99.3208 57° Northeast 490 564 33,900 -1,306 Descending Denver Center
Sat 01:34:28 PM 40.2575 -99.1764 57° Northeast 473 544 33,000 -435 Descending Denver Center
Sat 01:35:30 PM 40.3144 -99.0153 65° Northeast 488 562 33,000  Level Denver Center
Sat 01:36:21 PM 40.3692 -98.8519 66° East 492 566 33,000  Level Minneapolis Center
Sat 01:37:23 PM 40.4222 -98.6869 67° East 493 567 33,000  Level Minneapolis Center
Sat 01:38:24 PM 40.4767 -98.5253 66° East 490 564 33,000  Level Minneapolis Center
Sat 01:39:26 PM 40.5208 -98.3575 71° East 492 566 33,000 -390 Level Minneapolis Center
Sat 01:40:27 PM 40.5531 -98.1833 76° East 494 568 32,200 -1,073 Descending Minneapolis Center
Sat 01:41:29 PM 40.5847 -98.0089 77° East 492 566 30,800 -1,366 Descending Minneapolis Center
Sat 01:42:30 PM 40.6192 -97.8350 75° East 493 567 29,400 -1,268 Descending Minneapolis Center
Sat 01:43:32 PM 40.6886 -97.6417 65° Northeast 488 562 28,200 -1,073 Descending Minneapolis Center
Sat 01:44:33 PM 40.7469 -97.4803 64° Northeast 489 563 27,200 -976 Descending Minneapolis Center
Sat 01:45:35 PM 40.8033 -97.3250 64° Northeast 484 557 26,200 -976 Descending Minneapolis Center
Sat 01:46:36 PM 40.8581 -97.1714 65° Northeast 475 547 25,200 -1,024 Descending Minneapolis Center
Sat 01:47:38 PM 40.9117 -97.0203 65° Northeast 465 535 24,100 -1,780 Descending Minneapolis Center
Sat 01:48:34 PM 40.9517 -96.8667 71° East 436 502 21,700 -2,262 Descending Minneapolis Center
Sat 01:48:39 PM 40.9639 -96.8725 340° North 455 524 21,800 -2,500 Climbing Minneapolis Center
Sat 01:48:58 PM 40.9756 -96.8064 77° East 435 501 20,700 -2,323 Descending Minneapolis Center
Sat 01:49:41 PM 41.0161 -96.7269 56° Northeast 446 513 19,400 -2,361 Descending Minneapolis Center
Sat 01:49:59 PM 41.0294 -96.6572 76° East 453 521 18,300 -2,516 Descending Minneapolis Center
Sat 01:50:43 PM 41.0667 -96.5775 58° Northeast 446 513 16,800 -2,556 Descending Minneapolis Center
Sat 01:50:53 PM 41.0694 -96.5261 86° East 401 461 16,000 -2,754 Descending Minneapolis Center
Sat 01:51:44 PM 41.1022 -96.4097 69° East 403 464 14,000 -2,459 Descending Minneapolis Center
Sat 01:51:54 PM 41.1008 -96.3872 95° East 387 445 13,500 -2,323 Descending Minneapolis Center
Sat 01:52:46 PM 41.1292 -96.2747 71° East 387 445 11,600 -2,164 Descending Minneapolis Center
Sat 01:52:55 PM 41.1300 -96.2514 87° East 362 417 11,300 -1,279 Descending Minneapolis Center
Sat 01:53:47 PM 41.1517 -96.1600 72° East 336 387 10,300 -1,279 Descending Minneapolis Center
Sat 01:53:56 PM 41.1522 -96.1408 88° East 299 344 10,000 -1,839 Descending Minneapolis Center
Sat 01:54:49 PM 41.1717 -96.0597 72° East 306 352 8,400 -2,239 Descending Minneapolis Center
Sat 01:55:03 PM 41.1764 -96.0275 79° East 261 300 7,500 -2,361 Descending Minneapolis Center
Sat 01:55:50 PM 41.1894 -95.9692 73° East 278 320 6,000 -2,361 Descending Minneapolis Center
Sat 01:56:04 PM 41.1958 -95.9422 73° East 231 266 5,100 -2,471 Descending Minneapolis Center
Sat 01:56:58 PM 41.2106 -95.8794 73° East 188 216 3,200 -1,541 Descending Minneapolis Center
Sat 01:57:53 PM 41.2394 -95.8456 41° Northeast 178 205 2,300 -984 Descending Minneapolis Center
Sat 01:57:59 PM 41.2461 -95.8503 332° Northwest 127 146 2,200 -677 Descending Minneapolis Center
Sat 01:58:55 PM 41.2722 -95.8611 343° North 144 166 1,600 -689 Descending Minneapolis Center
Sat 01:59:00 PM 41.2767 -95.8689 307° West 115 132 1,500 -590 Descending Minneapolis Center
Sat 01:59:56 PM 41.2981 -95.8856 330° Northwest 127 146 1,000 -536 Descending Minneapolis Center
Sat 02:01:00 PM 41.3000 -95.8833 331° Northwest  Level FlightAware Approximate

Login

Don't have an account? Register now (free) for customized features, flight alerts, and more!